RJCK

Kushiro Airport

Kushiro, Japan
TAF RJCK 160512Z 1606/1712 23009KT 9999 FEW008 SCT015 TEMPO 1618/1621 3000 -SHRASN BR FEW005 BKN008 BECMG 1621/1700 29007KT
Issued Valid From Valid To
Dec-16 @ 05:12 UTC
(39 minutes ago)
Dec-16 @ 06:00 UTC
(in 9 minutes)
Dec-17 @ 12:00 UTC
(-1 days ago)
Dec-16 @ 06:00 to Dec-16 @ 21:00
TAF RJCK 160512Z 1606/1712 23009KT 9999 FEW008 SCT015
Wind Visibility Clouds
230° at 9 knots 10,000+ meters
  • Few at 800' AGL
  • Scattered at 1,500' AGL
Temporary Dec-16 @ 18:00 to Dec-16 @ 21:00
TEMPO 1618/1621 3000 -SHRASN BR FEW005 BKN008
Visibility Clouds Conditions
2,993 meters
  • Few at 500' AGL
  • Broken at 800' AGL
  • Light Rain
  • Light Snow
  • Mist
Becoming Dec-16 @ 21:00 to Dec-17 @ 12:00
BECMG 1621/1700 29007KT
Wind Visibility Clouds
290° at 7 knots 10,000+ meters
  • Few at 800' AGL
  • Scattered at 1,500' AGL
TAF RJCK 160512Z 1606/1712 23009KT 9999 FEW008 SCT015 TEMPO 1618/1621 3000 -SHRASN BR FEW005 BKN008 BECMG 1621/1700 29007KT
Issued Dec-16 @ 05:12 UTC
(39 minutes ago)
Valid From Dec-16 @ 06:00 UTC
(in 9 minutes)
Valid To Dec-17 @ 12:00 UTC
(-1 days ago)
Dec-16 @ 06:00 - Dec-16 @ 21:00
Wind Visibility
230° at 9 knots 10,000+ meters
Clouds
  • Few at 800' AGL
  • Scattered at 1,500' AGL
Temporary Dec-16 @ 18:00 - Dec-16 @ 21:00
Clouds
  • Few at 500' AGL
  • Broken at 800' AGL
Conditions
  • Light Rain
  • Light Snow
  • Mist
Becoming Dec-16 @ 21:00 - Dec-17 @ 12:00
Wind Visibility
290° at 7 knots 10,000+ meters
Clouds
  • Few at 800' AGL
  • Scattered at 1,500' AGL